Time;durP1;ratioP1;P1;durP2;ratioP2;P2;SDS_P1;SDS_P2;PMS_P1;PMS_P2;Temp;Humidity;BMP_temperature;BMP_pressure;BME280_temperature;BME280_humidity;BME280_pressure;Samples;Min_cycle;Max_cycle;Signal;HPM_P1;HPM_P2
2024/01/20 00:00:03;;;;;;;21.58;11.25;;;;;;;3.05;54.83;101957.16;674479;29;1371;-89
2024/01/20 00:00:26;;;;;;;18.92;11.07;;;;;;;3.09;54.61;101966.91;674565;29;1376;-88
2024/01/20 00:00:47;;;;;;;21.53;11.50;;;;;;;3.01;54.45;101958.59;672117;29;1140;-88
2024/01/20 00:01:07;;;;;;;23.13;11.20;;;;;;;3.04;54.48;101961.38;679547;29;1244;-89
2024/01/20 00:01:28;;;;;;;23.20;10.60;;;;;;;3.06;54.70;101962.41;674692;29;1299;-89
2024/01/20 00:01:49;;;;;;;19.85;9.90;;;;;;;3.08;54.73;101967.69;674771;29;1195;-88
2024/01/20 00:02:11;;;;;;;18.50;9.85;;;;;;;3.01;54.43;101961.16;679609;29;1238;-88
2024/01/20 00:02:32;;;;;;;20.02;9.88;;;;;;;3.06;54.64;101972.72;682415;29;1485;-88
2024/01/20 00:02:53;;;;;;;21.38;10.70;;;;;;;2.92;54.52;101945.84;679726;29;1186;-87
2024/01/20 00:03:13;;;;;;;22.27;10.80;;;;;;;2.92;54.32;101950.09;677277;29;993;-88
2024/01/20 00:03:35;;;;;;;21.47;10.73;;;;;;;2.90;54.39;101947.44;674563;29;1101;-88
2024/01/20 00:03:59;;;;;;;16.83;9.88;;;;;;;2.77;55.02;101953.31;676135;29;1111;-88
2024/01/20 00:04:20;;;;;;;18.95;9.90;;;;;;;2.77;54.87;101950.72;671921;29;1672;-88
2024/01/20 00:04:40;;;;;;;20.92;9.77;;;;;;;2.94;54.62;101972.66;677387;29;1116;-88
2024/01/20 00:05:01;;;;;;;23.13;9.18;;;;;;;2.76;54.73;101963.47;675877;29;1251;-89
2024/01/20 00:05:22;;;;;;;20.50;9.17;;;;;;;2.75;55.25;101953.94;674646;29;1338;-88
2024/01/20 00:05:44;;;;;;;19.60;9.50;;;;;;;2.78;55.20;101973.16;674626;29;1272;-88
2024/01/20 00:06:04;;;;;;;17.80;9.90;;;;;;;2.74;55.63;101971.09;676207;29;1130;-88
2024/01/20 00:06:25;;;;;;;18.13;9.63;;;;;;;2.64;55.17;101951.44;677328;29;1320;-88
2024/01/20 00:06:45;;;;;;;20.75;9.65;;;;;;;2.76;54.87;101955.75;674598;29;1314;-89
2024/01/20 00:07:06;;;;;;;21.63;9.40;;;;;;;2.77;54.86;101947.22;671971;29;1294;-89
2024/01/20 00:07:27;;;;;;;17.93;8.53;;;;;;;2.82;54.99;101976.88;674214;29;869;-88
2024/01/20 00:07:47;;;;;;;13.80;8.15;;;;;;;2.68;54.63;101953.47;679957;29;1279;-89
2024/01/20 00:08:08;;;;;;;15.13;8.25;;;;;;;2.82;54.95;101958.81;676611;29;1331;-89
2024/01/20 00:08:29;;;;;;;17.13;8.65;;;;;;;2.84;54.96;101968.47;679936;29;1176;-89
2024/01/20 00:08:50;;;;;;;15.50;8.37;;;;;;;2.69;55.29;101965.56;677323;29;1187;-88
2024/01/20 00:09:10;;;;;;;15.98;8.55;;;;;;;2.64;54.93;101948.84;677168;29;1170;-88
2024/01/20 00:09:37;;;;;;;14.88;8.52;;;;;;;2.69;54.82;101965.56;672210;29;1290;-89
2024/01/20 00:09:57;;;;;;;14.52;8.43;;;;;;;2.74;55.27;101958.19;679599;29;1251;-88
2024/01/20 00:10:18;;;;;;;13.83;7.60;;;;;;;2.75;54.85;101972.00;677190;29;1315;-87
2024/01/20 00:10:39;;;;;;;14.90;7.90;;;;;;;2.71;55.03;101968.28;677284;29;1175;-88
2024/01/20 00:11:00;;;;;;;17.90;8.50;;;;;;;2.80;55.28;101970.66;679761;29;1309;-89
2024/01/20 00:11:20;;;;;;;16.70;8.75;;;;;;;2.78;54.96;101962.84;685087;28;1254;-88
2024/01/20 00:11:41;;;;;;;15.02;8.70;;;;;;;2.68;54.85;101953.47;679420;29;899;-89
2024/01/20 00:12:02;;;;;;;11.65;8.18;;;;;;;2.73;55.20;101970.22;674574;29;1200;-88
2024/01/20 00:12:23;;;;;;;10.73;7.72;;;;;;;2.70;54.87;101964.78;677276;29;1299;-87
2024/01/20 00:12:43;;;;;;;12.07;7.90;;;;;;;2.58;55.04;101944.09;677312;29;775;-88
2024/01/20 00:13:04;;;;;;;13.20;8.07;;;;;;;2.68;55.25;101961.19;676162;29;1117;-88
2024/01/20 00:13:25;;;;;;;12.60;8.13;;;;;;;2.57;55.16;101951.72;674645;29;1165;-89
2024/01/20 00:13:45;;;;;;;12.07;8.00;;;;;;;2.64;55.24;101954.00;677023;29;1236;-88
2024/01/20 00:14:06;;;;;;;13.20;8.40;;;;;;;2.70;55.18;101964.78;682275;28;1907;-89
2024/01/20 00:14:27;;;;;;;18.73;8.82;;;;;;;2.67;54.91;101967.13;675613;29;1101;-88
2024/01/20 00:14:48;;;;;;;22.90;9.00;;;;;;;2.64;54.99;101953.09;674696;29;1258;-89
2024/01/20 00:15:09;;;;;;;26.35;9.65;;;;;;;2.64;54.93;101947.94;676601;29;1308;-89
2024/01/20 00:15:30;;;;;;;19.96;9.00;;;;;;;2.54;55.01;101943.72;672511;29;1319;-87
2024/01/20 00:15:51;;;;;;;16.77;8.60;;;;;;;2.73;54.95;101965.06;672137;29;1225;-88
2024/01/20 00:16:12;;;;;;;13.80;7.85;;;;;;;2.64;54.81;101947.94;678424;28;1261;-89
2024/01/20 00:16:32;;;;;;;14.80;8.15;;;;;;;2.66;54.78;101952.44;674679;29;1188;-89
2024/01/20 00:16:54;;;;;;;15.38;8.48;;;;;;;2.62;54.67;101944.34;674479;29;1283;-89
2024/01/20 00:17:15;;;;;;;13.60;8.32;;;;;;;2.77;54.84;101957.53;674688;29;1310;-88
2024/01/20 00:17:37;;;;;;;14.25;7.60;;;;;;;2.61;54.47;101938.28;679471;29;1339;-89
2024/01/20 00:17:58;;;;;;;13.80;7.70;;;;;;;2.62;54.32;101960.69;677292;29;1239;-89
2024/01/20 00:18:19;;;;;;;14.10;8.15;;;;;;;2.56;54.76;101949.91;674589;29;1404;-88
2024/01/20 00:18:39;;;;;;;12.30;8.00;;;;;;;2.53;54.93;101957.41;677439;29;1358;-88
2024/01/20 00:19:00;;;;;;;13.68;7.60;;;;;;;2.55;55.16;101960.97;678778;29;1206;-89
2024/01/20 00:19:21;;;;;;;16.50;7.53;;;;;;;2.46;55.28;101943.13;674130;29;1533;-88
2024/01/20 00:19:41;;;;;;;18.93;7.70;;;;;;;2.48;55.16;101936.41;675173;29;1282;-88
2024/01/20 00:20:04;;;;;;;17.48;8.10;;;;;;;2.52;54.72;101947.88;673720;29;1186;-88
2024/01/20 00:20:24;;;;;;;15.88;8.07;;;;;;;2.52;55.03;101947.88;677744;29;1210;-88
2024/01/20 00:20:46;;;;;;;14.73;8.50;;;;;;;2.50;54.76;101940.00;675176;29;1033;-88
2024/01/20 00:21:06;;;;;;;13.38;7.82;;;;;;;2.51;54.81;101935.75;679442;29;1296;-89
2024/01/20 00:21:27;;;;;;;15.00;8.38;;;;;;;2.49;54.63;101947.63;677509;29;1193;-89
2024/01/20 00:21:50;;;;;;;15.27;8.13;;;;;;;2.54;54.73;101952.38;677783;29;1387;-89
2024/01/20 00:22:11;;;;;;;15.38;8.30;;;;;;;2.48;54.68;101935.50;680119;29;1300;-88
2024/01/20 00:22:32;;;;;;;15.27;7.60;;;;;;;2.52;54.68;101943.63;674997;29;1199;-88
2024/01/20 00:22:53;;;;;;;16.70;7.97;;;;;;;2.49;54.74;101937.31;675072;29;1497;-88
2024/01/20 00:23:13;;;;;;;20.73;8.55;;;;;;;2.49;54.96;101942.47;680473;29;1154;-88
2024/01/20 00:23:34;;;;;;;21.48;8.98;;;;;;;2.46;54.36;101933.69;674886;29;1205;-89
2024/01/20 00:23:55;;;;;;;16.73;8.65;;;;;;;2.45;54.53;101933.59;675198;29;1377;-89
2024/01/20 00:24:16;;;;;;;14.63;8.45;;;;;;;2.34;55.06;101943.03;675441;29;1178;-89
2024/01/20 00:24:36;;;;;;;11.53;8.20;;;;;;;2.40;55.04;101940.06;680122;29;1205;-88
2024/01/20 00:24:59;;;;;;;12.07;8.18;;;;;;;2.41;54.82;101955.66;678214;29;1300;-88
2024/01/20 00:25:20;;;;;;;13.45;7.63;;;;;;;2.38;54.59;101937.34;675070;29;1117;-88
2024/01/20 00:25:41;;;;;;;13.25;7.40;;;;;;;2.45;54.57;101933.59;680332;29;1215;-88
2024/01/20 00:26:02;;;;;;;14.50;7.67;;;;;;;2.48;54.22;101940.66;677448;29;1240;-88
2024/01/20 00:26:23;;;;;;;13.15;7.60;;;;;;;2.42;54.93;101941.97;677812;29;1332;-89
2024/01/20 00:26:43;;;;;;;12.60;7.38;;;;;;;2.41;54.43;101937.63;677482;29;1305;-89
2024/01/20 00:27:04;;;;;;;11.55;7.10;;;;;;;2.39;54.79;101946.88;676388;29;1427;-88
2024/01/20 00:27:29;;;;;;;10.43;6.72;;;;;;;2.32;54.69;101931.69;674490;29;1292;-88
2024/01/20 00:27:50;;;;;;;12.30;6.90;;;;;;;2.31;54.75;101940.19;675094;29;1347;-88
2024/01/20 00:28:10;;;;;;;12.07;6.87;;;;;;;2.45;54.53;101954.22;677595;29;1193;-88
2024/01/20 00:28:31;;;;;;;12.60;7.00;;;;;;;2.34;55.02;101952.44;672571;29;1132;-88
2024/01/20 00:28:52;;;;;;;16.48;7.47;;;;;;;2.31;54.69;101932.47;675258;29;1141;-88
2024/01/20 00:29:12;;;;;;;20.48;8.00;;;;;;;2.31;54.75;101942.78;677593;29;1175;-88
2024/01/20 00:29:33;;;;;;;19.20;8.13;;;;;;;2.33;54.80;101946.41;675092;29;1222;-88
2024/01/20 00:29:54;;;;;;;18.75;8.40;;;;;;;2.33;54.83;101946.41;675157;29;1213;-88
2024/01/20 00:30:14;;;;;;;14.73;8.27;;;;;;;2.43;54.88;101943.78;675214;29;1055;-88
2024/01/20 00:30:35;;;;;;;14.85;8.00;;;;;;;2.41;55.00;101954.72;675085;29;1103;-88
2024/01/20 00:30:56;;;;;;;12.70;8.02;;;;;;;2.34;55.05;101937.88;675008;29;1161;-89
2024/01/20 00:31:17;;;;;;;12.23;7.93;;;;;;;2.35;54.71;101938.78;675111;29;1149;-88
2024/01/20 00:31:38;;;;;;;18.85;8.23;;;;;;;2.27;54.88;101945.91;675214;29;1438;-88
2024/01/20 00:31:58;;;;;;;17.93;7.87;;;;;;;2.31;55.07;101954.00;675003;29;1715;-88
2024/01/20 00:32:19;;;;;;;19.37;7.97;;;;;;;2.28;54.89;101942.53;672386;29;1297;-88
2024/01/20 00:32:40;;;;;;;13.30;7.90;;;;;;;2.38;54.91;101951.94;672461;29;1196;-88
2024/01/20 00:33:01;;;;;;;16.38;8.52;;;;;;;2.38;55.14;101950.22;673431;29;1198;-88
2024/01/20 00:33:22;;;;;;;15.45;8.30;;;;;;;2.28;54.82;101946.00;672557;29;1091;-88
2024/01/20 00:33:48;;;;;;;14.95;7.63;;;;;;;2.30;54.99;101938.41;675309;29;1342;-88
2024/01/20 00:34:09;;;;;;;10.40;6.93;;;;;;;2.44;54.84;101953.31;673617;29;1915;-88
2024/01/20 00:34:29;;;;;;;12.43;7.37;;;;;;;2.41;54.54;101944.44;677485;29;999;-88
2024/01/20 00:34:50;;;;;;;14.68;8.05;;;;;;;2.27;54.79;101940.75;680506;29;1356;-88
2024/01/20 00:35:11;;;;;;;13.98;7.50;;;;;;;2.29;54.65;101936.59;674819;29;1467;-89
2024/01/20 00:35:31;;;;;;;12.75;7.63;;;;;;;2.42;55.05;101946.22;675155;29;1043;-89
2024/01/20 00:35:52;;;;;;;11.30;7.67;;;;;;;2.38;54.82;101960.53;675103;29;1175;-88
2024/01/20 00:36:13;;;;;;;12.25;8.23;;;;;;;2.39;54.74;101956.28;675910;29;1599;-88
2024/01/20 00:36:33;;;;;;;13.35;7.85;;;;;;;2.31;54.96;101953.09;677923;29;1198;-89
2024/01/20 00:36:54;;;;;;;13.63;7.78;;;;;;;2.41;55.13;101957.31;677673;29;1281;-88
2024/01/20 00:37:15;;;;;;;12.87;7.33;;;;;;;2.39;54.93;101946.00;675059;29;1241;-88
2024/01/20 00:37:37;;;;;;;13.57;7.70;;;;;;;2.45;54.86;101955.09;674202;29;1269;-89
2024/01/20 00:37:58;;;;;;;20.42;8.70;;;;;;;2.42;54.45;101954.88;674010;29;1274;-89
2024/01/20 00:38:19;;;;;;;21.25;8.55;;;;;;;2.35;54.65;101938.78;677584;29;1192;-89
2024/01/20 00:38:41;;;;;;;23.48;7.90;;;;;;;2.23;54.64;101936.09;680453;29;1123;-88
2024/01/20 00:39:02;;;;;;;20.67;7.82;;;;;;;2.26;55.24;101944.09;676208;29;1273;-89
2024/01/20 00:39:23;;;;;;;19.73;8.02;;;;;;;2.40;54.72;101963.25;674960;29;1284;-89
2024/01/20 00:39:43;;;;;;;15.57;7.75;;;;;;;2.29;54.55;101936.59;677689;29;1150;-88
2024/01/20 00:40:05;;;;;;;14.07;7.18;;;;;;;2.41;54.35;101971.09;675013;29;1238;-88
2024/01/20 00:40:27;;;;;;;16.45;8.02;;;;;;;2.29;54.68;101944.34;677337;29;1109;-88
2024/01/20 00:40:47;;;;;;;17.00;7.85;;;;;;;2.25;54.96;101962.91;677719;29;1030;-88
2024/01/20 00:41:10;;;;;;;16.35;8.07;;;;;;;2.26;54.91;101944.09;679895;29;1217;-88
2024/01/20 00:41:31;;;;;;;14.10;7.40;;;;;;;2.27;54.69;101945.91;677590;29;1451;-88
2024/01/20 00:41:51;;;;;;;14.27;8.27;;;;;;;2.30;54.68;101956.44;675209;29;805;-88
2024/01/20 00:42:12;;;;;;;13.30;8.13;;;;;;;2.22;54.54;101944.63;677302;29;1340;-88
2024/01/20 00:42:33;;;;;;;13.45;8.23;;;;;;;2.16;54.86;101951.06;675029;29;1209;-88
2024/01/20 00:42:54;;;;;;;12.32;7.97;;;;;;;2.14;54.96;101944.88;674829;29;1143;-87
2024/01/20 00:43:14;;;;;;;14.50;8.52;;;;;;;2.22;55.01;101953.25;672283;29;1238;-89
2024/01/20 00:43:35;;;;;;;14.77;8.87;;;;;;;2.22;54.87;101949.78;675320;29;1275;-89
2024/01/20 00:43:56;;;;;;;14.80;8.60;;;;;;;2.17;54.65;101945.16;677499;29;1142;-88
2024/01/20 00:44:16;;;;;;;15.37;8.40;;;;;;;2.21;54.63;101955.69;672392;29;1726;-88
2024/01/20 00:44:40;;;;;;;14.80;8.13;;;;;;;2.16;54.63;101961.38;680192;29;1386;-88
2024/01/20 00:45:01;;;;;;;15.32;8.50;;;;;;;2.14;54.85;101959.47;677467;29;1945;-89
2024/01/20 00:45:21;;;;;;;13.35;8.68;;;;;;;2.15;54.89;101959.56;674088;29;1048;-88
2024/01/20 00:45:42;;;;;;;14.47;8.60;;;;;;;2.12;54.76;101949.03;675223;29;753;-88
2024/01/20 00:46:03;;;;;;;16.77;8.10;;;;;;;2.08;55.00;101949.53;673565;29;1234;-89
2024/01/20 00:46:24;;;;;;;17.38;7.78;;;;;;;2.07;54.62;101947.75;674998;29;1247;-88
2024/01/20 00:46:45;;;;;;;17.27;8.00;;;;;;;2.12;54.60;101954.19;677747;29;1412;-88
2024/01/20 00:47:05;;;;;;;14.65;7.97;;;;;;;2.07;54.79;101952.00;677316;29;1378;-88
2024/01/20 00:47:26;;;;;;;15.30;8.48;;;;;;;2.08;55.06;101956.38;679857;29;1334;-88
2024/01/20 00:47:47;;;;;;;14.63;8.23;;;;;;;2.04;55.14;101944.94;677764;29;1248;-88
2024/01/20 00:48:07;;;;;;;15.07;8.32;;;;;;;2.07;55.08;101947.75;677274;29;1328;-87
2024/01/20 00:48:28;;;;;;;14.95;8.27;;;;;;;2.07;54.75;101955.47;677713;29;1241;-88
2024/01/20 00:48:49;;;;;;;13.38;8.15;;;;;;;2.05;54.81;101941.56;677585;29;1028;-88
2024/01/20 00:49:10;;;;;;;12.10;8.35;;;;;;;2.16;54.84;101976.81;680103;29;1184;-88
2024/01/20 00:49:30;;;;;;;13.35;8.30;;;;;;;2.05;55.09;101949.31;680392;29;1267;-88
2024/01/20 00:49:51;;;;;;;15.63;7.70;;;;;;;2.09;54.81;101951.38;675120;29;1292;-88
2024/01/20 00:50:12;;;;;;;15.00;7.38;;;;;;;2.08;54.94;101954.69;674914;29;1167;-88
2024/01/20 00:50:32;;;;;;;13.20;6.88;;;;;;;2.07;55.01;101959.72;680283;29;1223;-88
2024/01/20 00:50:53;;;;;;;10.02;6.75;;;;;;;2.10;55.14;101965.13;675074;29;1356;-88
2024/01/20 00:51:14;;;;;;;11.80;6.70;;;;;;;2.09;54.60;101953.03;675058;29;1157;-88
2024/01/20 00:51:37;;;;;;;10.93;6.80;;;;;;;2.06;54.74;101945.06;682514;28;1623;-88
2024/01/20 00:51:57;;;;;;;11.90;6.93;;;;;;;2.07;54.96;101957.16;677887;29;1051;-88
2024/01/20 00:52:18;;;;;;;10.90;7.10;;;;;;;2.09;54.95;101959.09;677631;29;1136;-88
2024/01/20 00:52:39;;;;;;;11.98;7.38;;;;;;;2.07;54.69;101952.88;680106;29;1214;-88
2024/01/20 00:52:59;;;;;;;14.10;7.40;;;;;;;2.02;55.10;101955.09;677156;29;1299;-89
2024/01/20 00:53:20;;;;;;;14.35;7.15;;;;;;;2.04;54.78;101955.22;672293;29;1178;-89
2024/01/20 00:53:41;;;;;;;16.70;7.03;;;;;;;2.04;54.87;101965.53;675110;29;883;-89
2024/01/20 00:54:02;;;;;;;16.80;8.17;;;;;;;1.98;55.02;101952.13;677128;29;1693;-88
2024/01/20 00:54:22;;;;;;;18.30;9.18;;;;;;;1.99;55.08;101953.94;677550;29;1911;-88
2024/01/20 00:54:43;;;;;;;15.38;8.85;;;;;;;1.99;54.79;101947.13;675104;29;1295;-88
2024/01/20 00:55:04;;;;;;;12.73;7.70;;;;;;;1.94;54.87;101952.69;678385;29;1692;-89
2024/01/20 00:55:25;;;;;;;13.25;7.40;;;;;;;1.96;54.90;101953.69;677482;29;1596;-88
2024/01/20 00:55:46;;;;;;;13.77;7.90;;;;;;;1.97;55.14;101961.56;677599;29;1374;-88
2024/01/20 00:56:07;;;;;;;13.93;7.93;;;;;;;2.06;55.36;101973.38;679014;29;1310;-88
2024/01/20 00:56:27;;;;;;;12.10;7.80;;;;;;;2.12;55.58;101971.28;677758;29;1316;-89
2024/01/20 00:56:48;;;;;;;12.32;7.50;;;;;;;2.06;54.61;101958.81;680449;29;741;-88
2024/01/20 00:57:09;;;;;;;12.10;7.40;;;;;;;2.03;55.01;101961.16;678058;29;1134;-88
2024/01/20 00:57:30;;;;;;;14.93;7.50;;;;;;;2.03;55.27;101963.72;674695;29;951;-88
2024/01/20 00:57:50;;;;;;;15.65;7.70;;;;;;;2.01;54.81;101952.41;675053;29;1276;-88
2024/01/20 00:58:11;;;;;;;13.75;7.47;;;;;;;1.96;55.31;101958.84;682659;28;1286;-88
2024/01/20 00:58:32;;;;;;;11.73;6.68;;;;;;;1.98;55.39;101962.44;674794;29;1198;-88
2024/01/20 00:58:53;;;;;;;13.38;6.55;;;;;;;2.08;54.89;101969.25;677524;29;1311;-88
2024/01/20 00:59:13;;;;;;;13.10;6.60;;;;;;;2.02;55.21;101964.50;680032;29;1138;-88
2024/01/20 00:59:34;;;;;;;14.23;7.05;;;;;;;1.99;55.15;101969.38;680329;29;939;-89
2024/01/20 00:59:56;;;;;;;12.45;7.35;;;;;;;1.96;54.94;101953.69;682812;28;1291;-88
2024/01/20 01:00:16;;;;;;;12.55;7.20;;;;;;;1.98;55.02;101962.44;682918;29;1167;-89
2024/01/20 01:00:37;;;;;;;10.27;6.75;;;;;;;1.90;55.19;101970.44;680766;29;1584;-88
2024/01/20 01:00:58;;;;;;;12.90;7.20;;;;;;;1.97;55.31;101958.06;677347;29;1275;-88
2024/01/20 01:01:19;;;;;;;13.17;7.47;;;;;;;2.10;55.24;101989.22;674414;29;1525;-88
2024/01/20 01:01:39;;;;;;;12.63;7.53;;;;;;;2.04;55.19;101968.09;672163;29;1574;-89
2024/01/20 01:02:00;;;;;;;11.00;7.10;;;;;;;2.10;55.24;101973.75;676001;29;1138;-88
2024/01/20 01:02:21;;;;;;;9.43;6.72;;;;;;;2.11;54.88;101975.56;680184;29;1188;-88
2024/01/20 01:02:42;;;;;;;8.38;6.38;;;;;;;2.07;54.73;101949.44;682876;29;1392;-89
2024/01/20 01:03:03;;;;;;;7.55;6.13;;;;;;;1.95;55.10;101959.63;677284;29;1199;-89
2024/01/20 01:03:24;;;;;;;8.10;5.97;;;;;;;1.87;55.54;101969.28;675130;29;1112;-87
2024/01/20 01:03:44;;;;;;;8.45;5.85;;;;;;;1.99;55.07;101970.31;677547;29;1311;-88
2024/01/20 01:04:06;;;;;;;9.13;6.40;;;;;;;1.99;55.69;101970.31;676145;29;1326;-88
2024/01/20 01:04:27;;;;;;;10.02;6.97;;;;;;;2.03;55.41;101968.88;677613;29;1163;-88
2024/01/20 01:04:47;;;;;;;10.55;7.35;;;;;;;1.99;54.94;101951.38;674031;29;1062;-88
2024/01/20 01:05:09;;;;;;;13.43;6.70;;;;;;;2.07;55.38;101962.31;676596;29;1187;-87
2024/01/20 01:05:29;;;;;;;17.00;6.88;;;;;;;2.05;54.96;101969.91;675050;29;1305;-88
2024/01/20 01:05:51;;;;;;;19.10;7.00;;;;;;;2.03;54.99;101963.72;677634;29;1410;-88
2024/01/20 01:06:11;;;;;;;15.15;7.10;;;;;;;2.10;54.80;101968.63;674899;29;1330;-88
2024/01/20 01:06:34;;;;;;;10.03;6.77;;;;;;;2.04;54.81;101962.94;672449;29;1291;-88
2024/01/20 01:06:55;;;;;;;8.70;6.75;;;;;;;2.10;55.17;101984.06;674952;29;1218;-88
2024/01/20 01:07:16;;;;;;;9.13;6.90;;;;;;;2.00;54.71;101995.28;677526;29;1256;-89
2024/01/20 01:07:37;;;;;;;9.27;6.60;;;;;;;2.03;55.10;101986.91;674629;29;1227;-88
2024/01/20 01:07:57;;;;;;;8.73;6.20;;;;;;;2.00;54.99;101971.19;677380;29;1226;-88
2024/01/20 01:08:18;;;;;;;11.70;6.43;;;;;;;1.99;54.86;101972.88;680114;29;1346;-87
2024/01/20 01:08:39;;;;;;;12.90;6.90;;;;;;;1.87;55.03;101959.91;680273;29;1207;-88
2024/01/20 01:08:59;;;;;;;12.98;6.90;;;;;;;1.98;54.90;101989.09;678301;29;1202;-88
2024/01/20 01:09:20;;;;;;;12.60;7.17;;;;;;;1.98;55.30;101983.03;677442;29;1127;-88
2024/01/20 01:09:41;;;;;;;12.50;6.88;;;;;;;1.85;55.51;101969.16;675105;29;1089;-87
2024/01/20 01:10:03;;;;;;;15.52;7.20;;;;;;;1.97;55.32;101977.00;675983;29;1244;-88
2024/01/20 01:10:24;;;;;;;14.88;6.85;;;;;;;1.96;55.59;101974.31;677658;29;1329;-88
2024/01/20 01:10:44;;;;;;;13.63;6.55;;;;;;;1.84;55.33;101969.91;677464;29;1202;-88
2024/01/20 01:11:05;;;;;;;10.55;6.00;;;;;;;1.96;55.67;101984.59;672175;29;1207;-88
2024/01/20 01:11:26;;;;;;;9.80;5.93;;;;;;;2.04;55.17;101988.69;675114;29;1220;-88
2024/01/20 01:11:46;;;;;;;12.32;6.15;;;;;;;2.01;55.23;101973.00;678049;29;1179;-88
2024/01/20 01:12:07;;;;;;;13.00;6.55;;;;;;;1.97;55.55;101973.53;682767;28;1212;-88
2024/01/20 01:12:28;;;;;;;12.77;6.53;;;;;;;2.04;55.58;101996.44;682860;29;1217;-88
2024/01/20 01:12:49;;;;;;;9.13;6.15;;;;;;;2.09;55.32;101992.56;675698;29;1286;-88
2024/01/20 01:13:10;;;;;;;9.55;6.03;;;;;;;2.10;55.22;101981.50;680730;29;1172;-88
2024/01/20 01:13:30;;;;;;;9.87;6.07;;;;;;;2.13;55.27;101993.72;680074;29;1174;-88
2024/01/20 01:13:51;;;;;;;9.40;5.83;;;;;;;2.09;54.88;101982.28;674994;29;1342;-89
2024/01/20 01:14:12;;;;;;;9.77;6.03;;;;;;;2.05;55.36;101975.03;677420;29;1973;-88
2024/01/20 01:14:33;;;;;;;10.77;6.55;;;;;;;1.99;55.34;101990.00;674281;29;1368;-88
2024/01/20 01:14:54;;;;;;;12.66;7.14;;;;;;;1.93;55.24;101971.44;675052;29;1294;-90
2024/01/20 01:15:15;;;;;;;10.80;6.85;;;;;;;1.96;55.15;101988.06;677570;29;1236;-88
2024/01/20 01:15:36;;;;;;;11.93;6.47;;;;;;;1.97;55.51;101982.16;674883;29;1128;-88
2024/01/20 01:16:06;;;;;;;11.45;6.43;;;;;;;1.99;55.14;101984.84;672542;29;1195;-89
2024/01/20 01:16:26;;;;;;;13.38;6.70;;;;;;;2.06;55.04;101989.72;677672;29;1214;-88
2024/01/20 01:16:47;;;;;;;12.43;7.10;;;;;;;2.04;55.49;101968.09;677639;29;1198;-88
2024/01/20 01:17:08;;;;;;;11.82;6.70;;;;;;;2.15;55.17;101992.16;673724;29;1309;-88
2024/01/20 01:17:28;;;;;;;12.35;6.50;;;;;;;2.06;55.10;101976.84;674555;29;1065;-88
2024/01/20 01:17:49;;;;;;;10.60;6.60;;;;;;;2.02;55.03;101969.66;672365;29;1281;-87
2024/01/20 01:18:10;;;;;;;10.88;6.60;;;;;;;2.09;55.05;102000.28;674648;29;1350;-87
2024/01/20 01:18:31;;;;;;;10.33;6.50;;;;;;;1.99;54.91;101975.44;677596;29;1155;-89
2024/01/20 01:18:52;;;;;;;10.18;6.35;;;;;;;2.11;55.54;102000.41;677580;29;1317;-88
2024/01/20 01:19:13;;;;;;;8.43;6.32;;;;;;;2.01;55.24;101988.47;679894;29;1087;-88
2024/01/20 01:19:34;;;;;;;9.18;6.80;;;;;;;1.97;54.91;101971.84;677585;29;1079;-88
2024/01/20 01:19:54;;;;;;;9.88;6.78;;;;;;;2.00;55.22;101968.59;680109;28;1451;-88
2024/01/20 01:20:15;;;;;;;10.87;6.80;;;;;;;2.11;55.17;101984.94;675060;29;1074;-88
2024/01/20 01:20:36;;;;;;;12.43;6.60;;;;;;;2.08;55.38;101980.44;675050;29;1199;-88
2024/01/20 01:20:57;;;;;;;12.10;6.50;;;;;;;1.99;54.75;101990.91;674942;29;1142;-88
2024/01/20 01:21:17;;;;;;;13.90;6.63;;;;;;;1.92;54.98;101978.28;677538;29;1178;-87
2024/01/20 01:21:38;;;;;;;10.35;5.68;;;;;;;2.00;55.49;101990.13;680102;29;1182;-88
2024/01/20 01:21:58;;;;;;;10.40;6.10;;;;;;;1.91;55.11;101977.38;677807;29;1190;-88
2024/01/20 01:22:19;;;;;;;10.55;6.43;;;;;;;1.87;55.41;101983.06;677515;29;1352;-89
2024/01/20 01:22:40;;;;;;;12.65;7.10;;;;;;;1.93;55.27;101989.47;677625;29;1192;-88
2024/01/20 01:23:01;;;;;;;11.35;6.55;;;;;;;1.87;55.54;101977.91;677313;29;1321;-88
2024/01/20 01:24:02;;;;;;;10.43;6.20;;;;;;;1.99;55.58;101997.72;677705;29;1267;-88
2024/01/20 01:24:23;;;;;;;13.70;6.45;;;;;;;1.91;55.40;101971.34;675059;29;1080;-88
2024/01/20 01:24:44;;;;;;;11.40;6.43;;;;;;;1.93;55.27;101981.75;674968;29;953;-88
2024/01/20 01:25:05;;;;;;;11.63;7.10;;;;;;;1.96;55.27;101987.16;675967;29;1356;-88
2024/01/20 01:25:26;;;;;;;17.27;7.00;;;;;;;1.87;55.60;101988.22;680204;29;1282;-87
2024/01/20 01:25:49;;;;;;;16.67;6.87;;;;;;;1.84;55.44;101979.34;679040;29;1302;-89
2024/01/20 01:27:51;;;;;;;8.98;6.05;;;;;;;1.88;55.34;101987.44;680118;29;1256;-87
2024/01/20 01:28:12;;;;;;;8.77;6.20;;;;;;;1.97;55.64;101986.41;679542;29;1270;-88
2024/01/20 01:28:33;;;;;;;8.20;6.50;;;;;;;1.83;55.25;101972.38;677610;29;1211;-88
2024/01/20 01:28:54;;;;;;;8.10;6.50;;;;;;;2.00;55.25;101994.34;677689;29;1312;-88
2024/01/20 01:29:14;;;;;;;7.68;6.20;;;;;;;2.02;55.18;101986.00;674702;29;1199;-88
2024/01/20 01:29:35;;;;;;;9.52;6.32;;;;;;;2.07;54.96;101988.94;672300;29;1333;-88
2024/01/20 01:29:56;;;;;;;10.38;6.40;;;;;;;1.95;55.27;101987.94;674857;29;1323;-88
2024/01/20 01:30:21;;;;;;;10.50;5.93;;;;;;;1.97;55.33;101981.25;677465;29;1321;-88
2024/01/20 01:30:41;;;;;;;10.48;6.00;;;;;;;1.92;55.06;101986.03;676139;29;1138;-88
2024/01/20 01:31:02;;;;;;;10.90;6.20;;;;;;;1.97;55.21;101986.41;677466;29;1062;-88
2024/01/20 01:31:23;;;;;;;10.10;6.47;;;;;;;1.94;55.28;102001.59;677506;29;1242;-88
2024/01/20 01:31:44;;;;;;;8.15;6.07;;;;;;;1.94;55.42;101991.31;672360;29;1179;-88
2024/01/20 01:32:07;;;;;;;8.32;6.47;;;;;;;1.98;55.15;102004.56;676480;29;1255;-88
2024/01/20 01:32:28;;;;;;;9.00;6.40;;;;;;;1.90;55.21;102005.59;675007;29;1230;-88
2024/01/20 01:32:49;;;;;;;12.87;6.60;;;;;;;1.97;55.63;101991.53;680224;29;1428;-88
2024/01/20 01:33:09;;;;;;;12.63;6.20;;;;;;;2.01;55.56;101988.47;678938;29;1300;-88
2024/01/20 01:33:30;;;;;;;12.57;6.20;;;;;;;1.91;55.25;101966.19;677579;29;1629;-88
2024/01/20 01:33:51;;;;;;;11.00;6.22;;;;;;;1.99;54.84;101969.38;672489;29;1362;-88
2024/01/20 01:34:11;;;;;;;10.38;6.20;;;;;;;2.01;55.42;101988.47;679927;29;1970;-87
2024/01/20 01:34:32;;;;;;;9.30;6.10;;;;;;;1.96;55.46;101982.03;680321;29;1091;-88
2024/01/20 01:34:53;;;;;;;8.77;6.33;;;;;;;1.96;55.42;101990.63;677598;29;1303;-88
2024/01/20 01:35:13;;;;;;;8.57;6.10;;;;;;;2.03;55.36;101974.03;674801;29;1249;-88
2024/01/20 01:35:34;;;;;;;9.50;6.30;;;;;;;2.04;54.92;101993.84;676031;29;1402;-88
2024/01/20 01:35:55;;;;;;;9.25;6.18;;;;;;;2.09;55.10;101997.72;675037;29;1357;-89
2024/01/20 01:36:15;;;;;;;9.80;6.50;;;;;;;2.10;54.81;101999.53;672272;29;1179;-89
2024/01/20 01:36:36;;;;;;;11.65;6.28;;;;;;;2.00;54.85;101987.56;675047;29;1214;-88
2024/01/20 01:36:57;;;;;;;11.23;6.15;;;;;;;2.07;54.91;102001.81;677574;29;1120;-88
2024/01/20 01:37:18;;;;;;;13.02;6.32;;;;;;;2.07;54.95;102009.53;679662;29;1299;-88
2024/01/20 01:37:38;;;;;;;14.07;6.78;;;;;;;2.00;54.50;101987.56;676396;29;1271;-88
2024/01/20 01:37:59;;;;;;;17.90;6.70;;;;;;;2.04;54.87;101988.69;670047;29;823;-88
2024/01/20 01:38:20;;;;;;;17.77;6.72;;;;;;;1.99;54.76;101984.84;677485;29;1354;-87
2024/01/20 01:38:40;;;;;;;14.60;6.30;;;;;;;2.03;54.95;101981.75;677621;29;1196;-88
2024/01/20 01:39:01;;;;;;;11.50;6.47;;;;;;;1.95;54.52;101995.66;672804;29;1174;-88
2024/01/20 01:39:22;;;;;;;11.30;6.60;;;;;;;2.06;54.66;102012.03;680018;29;1292;-87
2024/01/20 01:39:43;;;;;;;9.90;6.30;;;;;;;1.88;54.97;101995.16;680129;29;840;-88
2024/01/20 01:40:04;;;;;;;10.17;6.40;;;;;;;1.96;55.11;101994.91;674791;29;1257;-88
2024/01/20 01:40:25;;;;;;;9.60;6.40;;;;;;;1.99;54.88;102016.66;674833;29;1503;-89
2024/01/20 01:40:45;;;;;;;9.52;6.47;;;;;;;1.88;54.75;101994.25;677631;29;1169;-88
2024/01/20 01:41:06;;;;;;;8.30;5.87;;;;;;;2.00;55.01;102014.97;677320;29;1183;-87
2024/01/20 01:41:27;;;;;;;9.00;6.28;;;;;;;2.11;54.91;102011.63;672296;29;1189;-88
2024/01/20 01:41:47;;;;;;;9.18;6.63;;;;;;;2.03;54.98;102003.25;672398;29;1328;-87
2024/01/20 01:42:09;;;;;;;10.45;6.88;;;;;;;1.99;54.75;101997.72;676477;29;1231;-88
2024/01/20 01:42:30;;;;;;;10.18;6.50;;;;;;;1.97;54.95;101996.69;675049;29;1254;-88